createdAt,value
2019-03-23T00:02:08.343Z,99984.95
2019-03-23T00:04:40.662Z,99977.80
2019-03-23T00:07:13.140Z,99977.80
2019-03-23T00:09:45.583Z,99979.94
2019-03-23T00:12:19.286Z,99981.25
2019-03-23T00:14:52.809Z,99972.61
2019-03-23T00:17:25.324Z,99972.61
2019-03-23T00:19:57.589Z,99974.45
2019-03-23T00:22:29.899Z,99974.45
2019-03-23T00:25:02.414Z,99975.44
2019-03-23T00:27:34.765Z,99976.05
2019-03-23T00:30:12.450Z,99979.27
2019-03-23T00:32:44.244Z,99980.39
2019-03-23T00:35:16.530Z,99968.70
2019-03-23T00:37:48.864Z,99967.92
2019-03-23T00:40:22.393Z,99965.01
2019-03-23T00:42:54.814Z,99970.90
2019-03-23T00:45:27.285Z,99970.90
2019-03-23T00:47:59.591Z,99940.58
2019-03-23T00:50:32.051Z,99940.58
2019-03-23T00:53:04.374Z,99972.61
2019-03-23T00:55:36.835Z,99975.09
2019-03-23T00:58:09.304Z,99975.09
2019-03-23T01:00:41.772Z,99964.44
2019-03-23T01:03:14.348Z,99964.44
2019-03-23T01:05:46.434Z,99980.55
2019-03-23T01:08:18.442Z,99980.09
2019-03-23T01:10:50.645Z,99985.49
2019-03-23T01:13:23.066Z,99985.49
2019-03-23T01:15:55.535Z,99983.00
2019-03-23T01:18:28.016Z,99982.69
2019-03-23T01:21:00.459Z,99981.47
2019-03-23T01:23:32.247Z,99984.86
2019-03-23T01:26:04.744Z,99974.86
2019-03-23T01:28:37.302Z,99978.56
2019-03-23T01:31:11.300Z,99973.91
2019-03-23T01:33:43.663Z,99978.02
2019-03-23T01:36:16.297Z,99978.02
2019-03-23T01:38:48.657Z,99977.39
2019-03-23T01:41:21.336Z,99977.39
2019-03-23T01:43:54.602Z,99971.56
2019-03-23T01:46:27.276Z,99977.95
2019-03-23T01:48:59.644Z,99980.55
2019-03-23T01:51:32.058Z,99982.61
2019-03-23T01:54:04.458Z,99977.66
2019-03-23T01:56:49.682Z,99972.16
2019-03-23T01:59:22.282Z,99974.74
2019-03-23T02:01:54.673Z,99976.84
2019-03-23T02:04:27.306Z,99976.66
2019-03-23T02:06:59.661Z,99979.60
2019-03-23T02:09:39.052Z,99979.60
2019-03-23T02:12:11.690Z,99990.91
2019-03-23T02:14:44.284Z,99988.61
2019-03-23T02:17:16.686Z,99975.88
2019-03-23T02:19:49.295Z,99975.88
2019-03-23T02:22:22.757Z,99994.17
2019-03-23T02:24:55.303Z,99994.17
2019-03-23T02:27:27.674Z,99987.42
2019-03-23T02:30:00.473Z,99987.42
2019-03-23T02:32:33.228Z,99993.69
2019-03-23T02:35:09.715Z,99994.41
2019-03-23T02:37:43.291Z,99990.12
2019-03-23T02:40:16.538Z,99975.75
2019-03-23T02:42:49.160Z,99975.75
2019-03-23T02:45:21.842Z,100000.80
2019-03-23T02:47:54.319Z,99999.09
2019-03-23T02:50:26.601Z,99994.28
2019-03-23T02:53:00.442Z,99994.28
2019-03-23T02:55:34.344Z,99994.00
2019-03-23T02:58:06.806Z,99967.01
2019-03-23T03:00:39.373Z,99967.01
2019-03-23T03:03:11.642Z,99995.98
2019-03-23T03:05:44.291Z,99995.98
2019-03-23T03:08:16.696Z,99997.71
2019-03-23T03:10:49.301Z,99997.71
2019-03-23T03:13:23.292Z,99988.51
2019-03-23T03:15:57.821Z,99992.19
2019-03-23T03:18:30.322Z,99992.19
2019-03-23T03:21:04.287Z,99996.06
2019-03-23T03:23:36.680Z,99982.37
2019-03-23T03:26:09.272Z,99982.37
2019-03-23T03:28:41.609Z,99980.42
2019-03-23T03:31:14.321Z,99986.76
2019-03-23T03:33:46.649Z,99985.87
2019-03-23T03:36:19.296Z,99985.87
2019-03-23T03:38:51.565Z,99985.73
2019-03-23T03:41:23.839Z,99986.97
2019-03-23T03:43:56.292Z,99981.12
2019-03-23T03:46:28.554Z,99986.53
2019-03-23T03:49:11.846Z,99986.53
2019-03-23T03:51:34.936Z,99984.00
2019-03-23T03:54:07.339Z,99981.72
2019-03-23T03:56:39.759Z,99967.61
2019-03-23T03:59:12.334Z,99967.61
2019-03-23T04:01:44.630Z,99947.42
2019-03-23T04:04:17.303Z,99947.42
2019-03-23T04:06:49.566Z,99979.23
2019-03-23T04:09:22.044Z,99979.23
2019-03-23T04:11:54.375Z,99982.94
2019-03-23T04:14:26.124Z,99982.38
2019-03-23T04:16:59.529Z,99978.66
2019-03-23T04:19:31.825Z,99988.19
2019-03-23T04:22:04.315Z,99991.78
2019-03-23T04:24:36.247Z,99988.38
2019-03-23T04:27:08.559Z,99986.55
2019-03-23T04:29:41.337Z,99984.11
2019-03-23T04:32:13.774Z,99972.56
2019-03-23T04:34:46.303Z,99972.56
2019-03-23T04:37:19.006Z,99981.91
2019-03-23T04:39:51.469Z,99991.47
2019-03-23T04:42:24.276Z,99989.90
2019-03-23T04:44:56.867Z,99991.20
2019-03-23T04:47:29.287Z,99991.36
2019-03-23T04:50:01.700Z,99958.30
2019-03-23T04:52:35.274Z,99958.30
2019-03-23T04:55:14.415Z,99989.54
2019-03-23T04:57:46.816Z,99982.12
2019-03-23T05:00:21.983Z,99982.12
2019-03-23T05:02:55.523Z,99985.63
2019-03-23T05:05:27.830Z,99984.63
2019-03-23T05:08:00.361Z,99989.27
2019-03-23T05:10:32.845Z,99987.00
2019-03-23T05:13:05.281Z,99987.00
2019-03-23T05:15:37.559Z,99978.59
2019-03-23T05:18:09.821Z,99978.59
2019-03-23T05:20:42.296Z,99993.48
2019-03-23T05:23:15.578Z,100002.08
2019-03-23T05:25:47.713Z,100001.31
2019-03-23T05:28:20.344Z,100005.13
2019-03-23T05:30:54.383Z,100011.67
2019-03-23T05:33:26.808Z,100003.88
2019-03-23T05:35:59.348Z,100003.88
2019-03-23T05:38:31.819Z,100005.19
2019-03-23T05:41:04.297Z,100005.19
2019-03-23T05:43:36.855Z,100006.23
2019-03-23T05:46:14.617Z,100006.23
2019-03-23T05:48:47.393Z,100012.98
2019-03-23T05:51:22.090Z,100015.33
2019-03-23T05:53:54.423Z,100017.84
2019-03-23T05:56:26.451Z,100023.53
2019-03-23T05:58:58.819Z,100020.51
2019-03-23T06:01:31.365Z,100021.09
2019-03-23T06:04:04.285Z,100021.67
2019-03-23T06:06:36.743Z,100032.28
2019-03-23T06:09:09.877Z,100032.28
2019-03-23T06:11:42.300Z,100023.23
2019-03-23T06:14:14.700Z,100027.74
2019-03-23T06:16:47.301Z,100027.74
2019-03-23T06:19:19.839Z,100013.47
2019-03-23T06:21:52.289Z,100013.47
2019-03-23T06:24:24.593Z,100007.41
2019-03-23T06:26:57.067Z,100007.41
2019-03-23T06:29:29.452Z,100033.41
2019-03-23T06:32:01.249Z,100031.69
2019-03-23T06:34:33.432Z,100034.48
2019-03-23T06:37:07.445Z,100034.33
2019-03-23T06:39:39.826Z,100035.71
2019-03-23T06:42:13.678Z,100034.75
2019-03-23T06:44:46.290Z,100045.91
2019-03-23T06:47:18.633Z,100035.84
2019-03-23T06:49:51.257Z,100035.84
2019-03-23T06:52:25.317Z,100029.07
2019-03-23T06:54:57.760Z,100032.48
2019-03-23T06:57:30.370Z,100032.48
2019-03-23T07:00:02.706Z,100016.98
2019-03-23T07:02:35.281Z,100016.98
2019-03-23T07:05:11.303Z,100031.08
2019-03-23T07:07:47.381Z,100038.44
2019-03-23T07:10:19.713Z,100034.84
2019-03-23T07:12:52.289Z,100034.84
2019-03-23T07:15:24.562Z,100039.63
2019-03-23T07:18:27.051Z,100039.63
2019-03-23T07:20:59.371Z,100036.80
2019-03-23T07:23:34.480Z,100027.75
2019-03-23T07:26:06.243Z,100027.75
2019-03-23T07:28:38.604Z,100044.58
2019-03-23T07:31:11.297Z,100051.33
2019-03-23T07:33:43.761Z,100044.95
2019-03-23T07:36:16.425Z,100044.95
2019-03-23T07:38:49.332Z,100046.68
2019-03-23T07:41:21.793Z,100044.93
2019-03-23T07:43:54.335Z,100044.93
2019-03-23T07:46:26.823Z,100048.42
2019-03-23T07:48:59.281Z,100044.06
2019-03-23T07:51:31.326Z,100047.49
2019-03-23T07:54:03.737Z,100038.42
2019-03-23T07:56:36.287Z,100038.42
2019-03-23T07:59:09.305Z,100044.91
2019-03-23T08:01:41.746Z,100044.91
2019-03-23T08:04:14.288Z,100044.28
2019-03-23T08:06:46.934Z,100040.33
2019-03-23T08:09:20.616Z,100044.47
2019-03-23T08:11:53.422Z,100038.23
2019-03-23T08:14:25.033Z,100043.80
2019-03-23T08:16:57.322Z,100039.53
2019-03-23T08:19:29.406Z,100042.31
2019-03-23T08:22:01.686Z,100045.72
2019-03-23T08:24:34.279Z,100045.72
2019-03-23T08:27:06.733Z,100042.75
2019-03-23T08:29:39.266Z,100046.16
2019-03-23T08:32:11.629Z,100045.29
2019-03-23T08:34:44.021Z,100044.04
2019-03-23T08:37:16.525Z,100044.28
2019-03-23T08:39:48.945Z,100048.29
2019-03-23T08:42:21.514Z,100051.76
2019-03-23T08:44:54.047Z,100047.32
2019-03-23T08:47:27.373Z,100046.53
2019-03-23T08:49:59.722Z,100040.20
2019-03-23T08:52:32.282Z,100043.84
2019-03-23T08:55:05.317Z,100037.95
2019-03-23T08:57:41.256Z,100015.52
2019-03-23T09:00:14.006Z,100015.52
2019-03-23T09:02:46.379Z,100032.95
2019-03-23T09:05:18.885Z,100032.88
2019-03-23T09:07:52.590Z,100032.88
2019-03-23T09:10:25.456Z,100033.36
2019-03-23T09:12:58.282Z,100038.95
2019-03-23T09:15:32.791Z,100037.30
2019-03-23T09:18:05.326Z,100037.30
2019-03-23T09:20:38.850Z,100037.14
2019-03-23T09:23:11.315Z,100032.69
2019-03-23T09:25:45.615Z,99999.67
2019-03-23T09:28:18.036Z,100032.27
2019-03-23T09:30:50.542Z,100032.27
2019-03-23T09:33:22.853Z,100029.65
2019-03-23T09:35:55.310Z,100029.70
2019-03-23T09:38:27.603Z,100023.34
2019-03-23T09:41:00.371Z,100023.34
2019-03-23T09:43:32.734Z,100017.06
2019-03-23T09:46:05.553Z,100017.06
2019-03-23T09:48:39.764Z,100019.94
2019-03-23T09:51:12.297Z,100013.02
2019-03-23T09:53:44.670Z,99999.74
2019-03-23T09:56:17.293Z,99999.74
2019-03-23T09:58:49.746Z,99997.16
2019-03-23T10:01:22.308Z,99997.16
2019-03-23T10:03:55.025Z,99988.76
2019-03-23T10:06:27.474Z,99988.76
2019-03-23T10:08:59.093Z,99992.02
2019-03-23T10:11:31.333Z,99988.22
2019-03-23T10:14:04.283Z,99984.22
2019-03-23T10:16:36.558Z,99985.69
2019-03-23T10:19:08.992Z,99984.34
2019-03-23T10:21:41.309Z,99988.34
2019-03-23T10:24:13.779Z,99941.55
2019-03-23T10:26:46.296Z,99941.55
2019-03-23T10:29:18.658Z,99937.67
2019-03-23T10:31:51.307Z,99937.67
2019-03-23T10:34:24.018Z,99961.59
2019-03-23T10:36:56.631Z,99961.59
2019-03-23T10:39:29.420Z,99955.58
2019-03-23T10:42:01.273Z,99953.50
2019-03-23T10:44:35.007Z,99954.84
2019-03-23T10:47:07.739Z,99954.84
2019-03-23T10:49:41.303Z,99949.66
2019-03-23T10:52:22.973Z,99940.50
2019-03-23T10:54:59.393Z,99940.50
2019-03-23T10:57:37.636Z,99936.74
2019-03-23T11:00:14.302Z,99936.74
2019-03-23T11:02:49.795Z,99939.86
2019-03-23T11:05:24.729Z,99939.86
2019-03-23T11:07:58.574Z,99942.08
2019-03-23T11:10:41.581Z,99943.24
2019-03-23T11:13:08.231Z,99934.51
2019-03-23T11:15:41.308Z,99945.63
2019-03-23T11:18:13.092Z,99938.38
2019-03-23T11:20:49.282Z,99946.30
2019-03-23T11:23:21.061Z,99946.14
2019-03-23T11:25:58.429Z,99948.41
2019-03-23T11:28:31.301Z,99942.84
2019-03-23T11:31:11.314Z,99932.19
2019-03-23T11:33:45.507Z,99932.19
2019-03-23T11:36:19.572Z,99945.09
2019-03-23T11:38:51.821Z,99935.02
2019-03-23T11:41:31.403Z,99938.36
2019-03-23T11:44:03.278Z,99932.25
2019-03-23T11:46:35.803Z,99939.22
2019-03-23T11:49:11.795Z,99933.89
2019-03-23T11:51:44.542Z,99941.46
2019-03-23T11:54:16.886Z,99939.74
2019-03-23T11:56:49.455Z,99933.48
2019-03-23T11:59:24.374Z,99924.16
2019-03-23T12:01:59.774Z,99919.63
2019-03-23T12:04:39.933Z,99923.57
2019-03-23T12:07:16.860Z,99922.30
2019-03-23T12:09:49.459Z,99920.34
2019-03-23T12:12:24.424Z,99913.88
2019-03-23T12:14:56.908Z,99888.92
2019-03-23T12:17:29.944Z,99888.92
2019-03-23T12:20:04.638Z,99912.47
2019-03-23T12:22:38.460Z,99926.02
2019-03-23T12:25:12.336Z,99919.22
2019-03-23T12:27:47.476Z,99909.97
2019-03-23T12:30:20.447Z,99916.84
2019-03-23T12:32:53.045Z,99911.09
2019-03-23T12:35:25.716Z,99906.87
2019-03-23T12:37:58.289Z,99903.26
2019-03-23T12:40:30.583Z,99898.09
2019-03-23T12:43:03.292Z,99898.09
2019-03-23T12:45:35.025Z,99891.14
2019-03-23T12:48:07.359Z,99891.14
2019-03-23T12:50:39.233Z,99857.86
2019-03-23T12:53:11.506Z,99857.86
2019-03-23T12:55:44.047Z,99895.10
2019-03-23T12:58:16.503Z,99891.13
2019-03-23T13:00:48.836Z,99888.73
2019-03-23T13:03:21.353Z,99884.91
2019-03-23T13:05:53.248Z,99884.03
2019-03-23T13:08:25.750Z,99877.32
2019-03-23T13:10:58.301Z,99876.73
2019-03-23T13:13:29.999Z,99878.94
2019-03-23T13:16:04.326Z,99878.94
2019-03-23T13:18:37.025Z,99878.67
2019-03-23T13:21:13.279Z,99874.55
2019-03-23T13:23:46.737Z,99867.55
2019-03-23T13:26:21.037Z,99867.55
2019-03-23T13:28:53.688Z,99861.42
2019-03-23T13:31:26.624Z,99856.37
2019-03-23T13:33:59.349Z,99855.39
2019-03-23T13:36:31.092Z,99850.61
2019-03-23T13:39:05.271Z,99850.61
2019-03-23T13:41:49.147Z,99832.42
2019-03-23T13:44:22.288Z,99832.42
2019-03-23T13:46:53.586Z,99847.07
2019-03-23T13:49:25.015Z,99847.08
2019-03-23T13:51:57.434Z,99847.02
2019-03-23T13:54:29.745Z,99837.05
2019-03-23T13:57:02.294Z,99834.20
2019-03-23T13:59:34.612Z,99824.80
2019-03-23T14:02:07.296Z,99824.80
2019-03-23T14:04:39.749Z,99805.39
2019-03-23T14:07:12.291Z,99805.39
2019-03-23T14:09:44.842Z,99813.88
2019-03-23T14:12:17.329Z,99813.88
2019-03-23T14:14:48.573Z,99811.66
2019-03-23T14:17:20.616Z,99814.23
2019-03-23T14:19:53.035Z,99815.63
2019-03-23T14:22:28.399Z,99818.98
2019-03-23T14:25:03.291Z,99813.72
2019-03-23T14:27:35.264Z,99806.57
2019-03-23T14:30:09.354Z,99806.08
2019-03-23T14:32:41.770Z,99803.27
2019-03-23T14:35:15.681Z,99803.27
2019-03-23T14:37:48.282Z,99810.31
2019-03-23T14:40:20.645Z,99809.36
2019-03-23T14:42:53.260Z,99809.36
2019-03-23T14:45:27.285Z,99808.95
2019-03-23T14:47:59.149Z,99802.30
2019-03-23T14:50:34.321Z,99802.30
2019-03-23T14:53:06.698Z,99804.23
2019-03-23T14:55:39.294Z,99804.23
2019-03-23T14:58:13.306Z,99796.52
2019-03-23T15:00:45.607Z,99788.37
2019-03-23T15:03:18.103Z,99788.37
2019-03-23T15:05:50.470Z,99791.09
2019-03-23T15:08:23.033Z,99797.30
2019-03-23T15:10:55.384Z,99790.95
2019-03-23T15:13:29.450Z,99783.03
2019-03-23T15:16:01.031Z,99783.03
2019-03-23T15:18:33.374Z,99781.22
2019-03-23T15:21:05.044Z,99755.86
2019-03-23T15:23:37.418Z,99755.86
2019-03-23T15:26:09.244Z,99788.03
2019-03-23T15:28:44.446Z,99783.66
2019-03-23T15:31:16.032Z,99781.50
2019-03-23T15:33:48.457Z,99787.88
2019-03-23T15:36:20.206Z,99789.34
2019-03-23T15:38:52.449Z,99783.26
2019-03-23T15:41:24.883Z,99783.09
2019-03-23T15:43:58.422Z,99780.67
2019-03-23T15:46:30.072Z,99772.39
2019-03-23T15:49:02.398Z,99780.84
2019-03-23T15:51:34.183Z,99773.02
2019-03-23T15:54:06.614Z,99779.00
2019-03-23T15:56:39.090Z,99783.87
2019-03-23T15:59:11.441Z,99775.16
2019-03-23T16:01:43.221Z,99769.92
2019-03-23T16:04:15.534Z,99781.59
2019-03-23T16:06:47.876Z,99776.62
2019-03-23T16:09:20.330Z,99775.48
2019-03-23T16:11:52.696Z,99772.23
2019-03-23T16:14:25.331Z,99772.23
2019-03-23T16:16:57.668Z,99738.50
2019-03-23T16:19:30.292Z,99738.50
2019-03-23T16:22:03.086Z,99763.21
2019-03-23T16:24:36.747Z,99763.21
2019-03-23T16:27:09.374Z,99790.00
2019-03-23T16:29:40.913Z,99779.75
2019-03-23T16:32:13.292Z,99779.75
2019-03-23T16:34:51.010Z,99760.91
2019-03-23T16:37:23.531Z,99760.91
2019-03-23T16:39:58.327Z,99779.24
2019-03-23T16:42:30.812Z,99776.91
2019-03-23T16:45:03.342Z,99776.91
2019-03-23T16:47:34.567Z,99773.73
2019-03-23T16:50:08.194Z,99777.58
2019-03-23T16:52:45.290Z,99781.96
2019-03-23T16:55:17.975Z,99777.42
2019-03-23T16:57:51.485Z,99777.42
2019-03-23T17:00:49.453Z,99775.86
2019-03-23T17:03:35.338Z,99774.98
2019-03-23T17:06:08.272Z,99770.19
2019-03-23T17:08:42.359Z,99768.31
2019-03-23T17:11:16.305Z,99775.02
2019-03-23T17:13:50.420Z,99743.03
2019-03-23T17:16:22.225Z,99743.03
2019-03-23T17:19:03.885Z,99774.28
2019-03-23T19:29:10.071Z,99850.77
2019-03-23T19:31:42.407Z,99850.77
2019-03-23T19:34:14.697Z,99846.71
2019-03-23T19:36:47.303Z,99849.52
2019-03-23T19:39:19.775Z,99849.20
2019-03-23T19:41:52.426Z,99849.20
2019-03-23T19:44:24.867Z,99852.83
2019-03-23T19:46:57.855Z,99852.64
2019-03-23T19:49:30.293Z,99854.80
2019-03-23T19:52:02.577Z,99861.35
2019-03-23T19:54:35.294Z,99861.35
2019-03-23T19:57:08.042Z,99871.94
2019-03-23T19:59:43.313Z,99871.94
2019-03-23T20:02:15.868Z,99853.68
2019-03-23T20:04:48.699Z,99853.68
2019-03-23T20:07:21.072Z,99865.97
2019-03-23T20:09:53.526Z,99866.54
2019-03-23T20:12:26.287Z,99866.52
2019-03-23T20:14:58.493Z,99867.61
2019-03-23T20:17:29.915Z,99863.59
2019-03-23T20:20:08.658Z,99868.59
2019-03-23T20:22:42.409Z,99868.06
2019-03-23T20:25:17.140Z,99862.19
2019-03-23T20:27:49.648Z,99869.39
2019-03-23T20:30:23.509Z,99866.73
2019-03-23T20:32:56.322Z,99869.44
2019-03-23T20:35:28.661Z,99861.47
2019-03-23T20:38:01.347Z,99861.47
2019-03-23T20:40:35.669Z,99872.51
2019-03-23T20:43:08.338Z,99865.58
2019-03-23T20:50:07.453Z,99867.09
2019-03-23T20:52:39.271Z,99872.83
2019-03-23T20:55:28.288Z,99865.48
2019-03-23T20:58:02.237Z,99872.70
2019-03-23T21:00:36.441Z,99860.22
2019-03-23T21:03:10.477Z,99860.22
2019-03-23T21:05:42.236Z,99864.37
2019-03-23T21:08:14.856Z,99870.49
2019-03-23T21:10:47.368Z,99869.03
2019-03-23T21:13:21.496Z,99856.66
2019-03-23T21:16:28.260Z,99856.66
2019-03-23T21:26:22.787Z,99886.52
2019-03-23T21:35:58.363Z,99885.98
2019-03-23T21:38:30.980Z,99876.38
2019-03-23T21:41:05.307Z,99876.38
2019-03-23T21:43:37.810Z,99862.94
2019-03-23T21:46:10.297Z,99862.94
2019-03-23T21:48:42.290Z,99883.52
2019-03-23T21:51:14.643Z,99873.16
2019-03-23T21:53:48.514Z,99877.13
2019-03-23T21:56:20.241Z,99877.16
2019-03-23T21:58:52.635Z,99874.64
2019-03-23T22:01:25.340Z,99874.22
2019-03-23T22:03:57.875Z,99869.48
2019-03-23T22:06:30.534Z,99869.48
2019-03-23T22:09:05.064Z,99861.09
2019-03-23T22:11:37.728Z,99865.56
2019-03-23T22:14:11.312Z,99865.83
2019-03-23T22:16:44.332Z,99857.17
2019-03-23T22:19:18.550Z,99837.66
2019-03-23T22:21:51.307Z,99837.66
2019-03-23T22:24:23.235Z,99858.70
2019-03-23T22:26:56.011Z,99858.40
2019-03-23T22:29:29.679Z,99856.28
2019-03-23T22:32:02.500Z,99855.14
2019-03-23T22:34:44.331Z,99858.13
2019-03-23T22:37:15.972Z,99857.64
2019-03-23T22:39:48.976Z,99860.11
2019-03-23T22:42:24.517Z,99856.48
2019-03-23T22:44:57.296Z,99858.17
2019-03-23T22:47:29.578Z,99829.70
2019-03-23T22:50:02.017Z,99829.70
2019-03-23T22:52:36.393Z,99845.98
2019-03-23T22:55:09.948Z,99842.20
2019-03-23T22:57:42.425Z,99834.82
2019-03-23T23:00:20.264Z,99836.63
2019-03-23T23:02:54.587Z,99841.87
2019-03-23T23:05:27.018Z,99834.00
2019-03-23T23:07:59.510Z,99839.26
2019-03-23T23:10:31.393Z,99834.52
2019-03-23T23:13:03.231Z,99835.15
2019-03-23T23:15:35.516Z,99832.53
2019-03-23T23:18:07.968Z,99833.52
2019-03-23T23:20:40.368Z,99838.28
2019-03-23T23:23:12.420Z,99833.84
2019-03-23T23:25:45.989Z,99827.42
2019-03-23T23:28:18.610Z,99820.69
2019-03-23T23:30:51.104Z,99821.34
2019-03-23T23:33:23.552Z,99823.98
2019-03-23T23:35:56.091Z,99822.62
2019-03-23T23:38:28.397Z,99818.52
2019-03-23T23:41:00.682Z,99813.91
2019-03-23T23:43:33.299Z,99813.91
2019-03-23T23:46:05.728Z,99815.84
2019-03-23T23:48:38.363Z,99815.84
2019-03-23T23:51:11.503Z,99808.44
2019-03-23T23:53:44.295Z,99816.32
2019-03-23T23:56:16.625Z,99809.95
2019-03-23T23:58:49.302Z,99809.95
